Time;durP1;ratioP1;P1;durP2;ratioP2;P2;SDS_P1;SDS_P2;PMS_P1;PMS_P2;Temp;Humidity;BMP_temperature;BMP_pressure;BME280_temperature;BME280_humidity;BME280_pressure;Samples;Min_cycle;Max_cycle;Signal;HPM_P1;HPM_P2
2021/07/18 00:02:25;;;;;;;9.58;6.50;;;;;;;22.06;79.33;100426.03;1680286;82;27582;-79
2021/07/18 00:04:55;;;;;;;10.28;6.62;;;;;;;22.04;79.53;100424.12;1677185;84;25787;-78
2021/07/18 00:07:21;;;;;;;13.32;8.43;;;;;;;22.04;79.70;100433.66;1692371;84;25864;-78
2021/07/18 00:09:48;;;;;;;18.27;13.32;;;;;;;22.03;79.76;100433.91;1667479;84;26211;-78
2021/07/18 00:12:15;;;;;;;17.70;12.03;;;;;;;21.97;79.87;100436.34;1643105;82;25960;-78
2021/07/18 00:14:43;;;;;;;12.35;8.68;;;;;;;21.93;80.21;100431.14;1719433;82;27517;-79
2021/07/18 00:17:10;;;;;;;8.70;7.08;;;;;;;21.86;80.57;100434.10;1703230;84;25844;-78
2021/07/18 00:19:37;;;;;;;9.03;7.30;;;;;;;21.80;80.93;100428.85;1658980;84;25898;-78
2021/07/18 00:22:06;;;;;;;11.75;7.03;;;;;;;21.75;81.17;100431.00;1680017;82;25960;-78
2021/07/18 00:24:33;;;;;;;7.78;6.70;;;;;;;21.72;81.24;100430.19;1703287;82;25838;-78
2021/07/18 00:27:00;;;;;;;8.93;7.17;;;;;;;21.73;81.49;100428.25;1693262;84;27568;-78
2021/07/18 00:29:27;;;;;;;9.03;7.05;;;;;;;21.70;81.52;100427.44;1676047;84;26018;-78
2021/07/18 00:31:55;;;;;;;7.75;6.95;;;;;;;21.65;81.96;100429.59;1676824;84;25562;-78
2021/07/18 00:34:22;;;;;;;9.78;7.37;;;;;;;21.57;82.06;100430.63;1724944;82;25778;-78
2021/07/18 00:36:49;;;;;;;11.35;7.95;;;;;;;21.56;82.21;100433.88;1723934;82;26344;-78
2021/07/18 00:39:16;;;;;;;13.35;8.30;;;;;;;21.56;82.36;100428.43;1631234;84;27595;-78
2021/07/18 00:41:44;;;;;;;14.13;9.93;;;;;;;21.58;82.48;100430.91;1643255;85;26107;-78
2021/07/18 00:44:11;;;;;;;18.00;11.30;;;;;;;21.57;82.54;100425.17;1723305;82;25941;-78
2021/07/18 00:46:38;;;;;;;10.55;7.90;;;;;;;21.55;82.57;100432.26;1722912;82;26182;-78
2021/07/18 00:49:05;;;;;;;9.95;7.30;;;;;;;21.53;82.77;100422.70;1652161;84;25804;-78
2021/07/18 00:51:32;;;;;;;7.80;6.87;;;;;;;21.53;82.86;100433.59;1703998;82;27427;-78
2021/07/18 00:54:00;;;;;;;8.60;6.55;;;;;;;21.51;82.85;100433.87;1694231;83;25790;-78
2021/07/18 00:56:27;;;;;;;8.28;6.62;;;;;;;21.45;83.05;100426.72;1710199;83;25795;-78
2021/07/18 00:58:56;;;;;;;7.75;6.28;;;;;;;21.43;83.33;100430.25;1643695;83;25910;-78
2021/07/18 01:01:23;;;;;;;9.83;6.28;;;;;;;21.45;83.42;100422.09;1666634;83;25839;-78
2021/07/18 01:03:51;;;;;;;7.67;6.05;;;;;;;21.47;83.32;100419.92;1706893;83;27470;-78
2021/07/18 01:06:18;;;;;;;8.45;6.12;;;;;;;21.47;83.39;100427.27;1690461;84;26075;-78
2021/07/18 01:08:45;;;;;;;8.63;7.03;;;;;;;;;;1628212;85;25815;-78
2021/07/18 01:11:12;;;;;;;7.85;6.05;;;;;;;21.49;83.16;100427.30;1668654;84;25797;-78
2021/07/18 01:13:39;;;;;;;6.60;5.78;;;;;;;21.50;83.26;100422.14;1693195;84;25911;-78
2021/07/18 01:16:06;;;;;;;7.83;5.85;;;;;;;21.49;83.14;100417.76;1662063;83;27598;-78
2021/07/18 01:18:34;;;;;;;7.33;6.47;;;;;;;21.50;83.19;100414.50;1659648;83;25751;-78
2021/07/18 01:21:03;;;;;;;8.93;6.67;;;;;;;21.50;83.28;100411.77;1648558;84;26010;-78
2021/07/18 01:23:30;;;;;;;8.10;6.17;;;;;;;21.47;83.16;100402.21;1711645;82;25769;-78
2021/07/18 01:25:57;;;;;;;7.47;6.00;;;;;;;21.46;83.15;100404.67;1686101;82;25791;-78
2021/07/18 01:28:24;;;;;;;7.47;5.78;;;;;;;21.42;83.14;100403.56;1689965;82;27568;-78
2021/07/18 01:30:51;;;;;;;8.38;6.60;;;;;;;21.41;83.18;100409.25;1704377;82;25866;-78
2021/07/18 01:33:19;;;;;;;9.85;6.85;;;;;;;21.38;83.21;100410.59;1616170;84;25414;-78
2021/07/18 01:35:46;;;;;;;8.88;6.97;;;;;;;21.34;83.36;100417.65;1650459;83;26003;-78
2021/07/18 01:38:15;;;;;;;12.53;6.90;;;;;;;21.30;83.43;100417.06;1710210;82;25764;-78
2021/07/18 01:40:42;;;;;;;8.38;6.60;;;;;;;21.30;83.65;100419.25;1675837;82;28493;-78
2021/07/18 01:43:09;;;;;;;7.83;6.20;;;;;;;21.28;83.68;100416.51;1667228;84;25968;-78
2021/07/18 01:45:36;;;;;;;9.78;7.03;;;;;;;21.27;83.79;100414.34;1680136;82;26024;-78
2021/07/18 01:48:04;;;;;;;8.73;6.37;;;;;;;21.22;83.87;100418.39;1699879;82;25769;-78
2021/07/18 01:50:32;;;;;;;10.40;6.33;;;;;;;21.20;84.13;100418.36;1681046;82;25960;-78
2021/07/18 01:53:01;;;;;;;8.75;7.42;;;;;;;21.20;84.25;100414.27;1689168;82;27639;-78
2021/07/18 01:55:28;;;;;;;7.58;6.17;;;;;;;21.18;84.17;100424.08;1675375;82;25847;-78
2021/07/18 01:57:55;;;;;;;7.87;6.50;;;;;;;21.14;84.28;100427.58;1711884;82;25849;-78
2021/07/18 02:00:22;;;;;;;7.65;6.55;;;;;;;21.08;84.35;100424.00;1681594;82;26601;-78
2021/07/18 02:02:52;;;;;;;10.88;6.17;;;;;;;21.08;84.43;100425.89;1670056;82;25937;-78
2021/07/18 02:05:21;;;;;;;12.80;6.67;;;;;;;21.08;84.33;100426.73;1644466;84;27484;-78
2021/07/18 02:07:51;;;;;;;8.30;6.70;;;;;;;21.04;84.42;100435.11;1711502;83;26556;-78
2021/07/18 02:10:21;;;;;;;7.50;6.70;;;;;;;20.97;84.48;100435.84;1659041;83;26250;-78
2021/07/18 02:12:49;;;;;;;14.60;7.87;;;;;;;20.94;84.60;100448.61;1666737;84;26663;-78
2021/07/18 02:15:20;;;;;;;12.35;7.50;;;;;;;20.87;84.82;100442.54;1676625;82;25994;-78
2021/07/18 02:17:47;;;;;;;7.83;7.00;;;;;;;20.87;85.00;100439.81;1716121;82;28265;-78
2021/07/18 02:20:19;;;;;;;7.85;7.15;;;;;;;20.89;85.12;100441.77;1680600;82;25994;-79
2021/07/18 02:22:53;;;;;;;8.68;6.67;;;;;;;20.92;85.24;100438.52;1666684;84;26689;-78
2021/07/18 02:25:25;;;;;;;8.03;6.72;;;;;;;20.90;85.33;100445.30;1661314;84;25913;-78
2021/07/18 02:27:53;;;;;;;9.68;7.65;;;;;;;20.87;85.43;100451.27;1708566;83;25898;-78
2021/07/18 02:30:23;;;;;;;8.23;6.45;;;;;;;20.82;85.72;100447.13;1677752;82;27469;-78
2021/07/18 02:32:51;;;;;;;10.55;7.30;;;;;;;20.78;85.91;100453.08;1663270;84;25936;-78
2021/07/18 02:35:20;;;;;;;10.68;7.40;;;;;;;20.79;86.17;100453.91;1636961;84;26371;-78
2021/07/18 02:37:49;;;;;;;17.32;12.15;;;;;;;20.82;86.35;100458.84;1709729;82;25747;-78
2021/07/18 02:40:18;;;;;;;13.45;12.05;;;;;;;20.86;86.54;100455.89;1693405;82;25944;-78
2021/07/18 02:42:46;;;;;;;10.93;9.58;;;;;;;20.90;86.67;100460.27;1658484;84;28220;-78
2021/07/18 02:45:17;;;;;;;9.55;8.35;;;;;;;20.95;86.87;100465.78;1633781;84;25946;-78
2021/07/18 02:47:45;;;;;;;9.85;8.85;;;;;;;20.98;86.89;100466.63;1709932;82;25899;-78
2021/07/18 02:50:16;;;;;;;11.12;8.80;;;;;;;21.04;87.02;100471.88;1692227;82;25845;-78
2021/07/18 02:52:44;;;;;;;12.28;8.38;;;;;;;21.07;87.10;100472.73;1683072;81;26023;-78
2021/07/18 02:55:13;;;;;;;11.43;9.75;;;;;;;21.10;87.00;100468.14;1690306;81;28250;-78
2021/07/18 02:57:41;;;;;;;13.88;9.55;;;;;;;21.11;87.17;100468.94;1737813;81;25962;-78
2021/07/18 03:00:12;;;;;;;12.10;9.18;;;;;;;21.16;87.41;100469.00;1708587;80;25856;-78
2021/07/18 03:02:42;;;;;;;13.15;9.95;;;;;;;21.15;87.43;100468.17;1687540;83;26040;-78
2021/07/18 03:05:10;;;;;;;13.35;10.15;;;;;;;21.17;87.73;100465.20;1730787;81;25849;-78
2021/07/18 03:07:39;;;;;;;12.50;10.68;;;;;;;21.17;87.89;100467.36;1724823;81;27517;-78
2021/07/18 03:10:09;;;;;;;14.70;11.43;;;;;;;21.18;88.17;100472.28;1686421;81;25997;-78
2021/07/18 03:12:36;;;;;;;15.32;11.35;;;;;;;21.18;88.40;100479.09;1684016;82;26038;-78
2021/07/18 03:15:13;;;;;;;15.78;11.38;;;;;;;21.15;88.59;100477.70;1688030;82;25941;-78
2021/07/18 03:17:40;;;;;;;16.20;10.78;;;;;;;21.16;88.96;100475.80;1732647;81;25753;-78
2021/07/18 03:20:11;;;;;;;15.32;12.03;;;;;;;21.14;89.12;100477.97;1701078;81;27638;-78
2021/07/18 03:22:40;;;;;;;15.30;12.88;;;;;;;21.14;89.34;100479.33;1724761;80;25833;-78
2021/07/18 03:25:09;;;;;;;16.82;12.33;;;;;;;21.17;89.53;100479.62;1725569;81;25888;-78
2021/07/18 03:27:37;;;;;;;17.25;12.15;;;;;;;21.18;89.84;100473.64;1755013;80;25922;-78
2021/07/18 03:30:09;;;;;;;16.32;12.68;;;;;;;21.20;90.14;100466.86;1705385;81;26523;-78
2021/07/18 03:32:36;;;;;;;16.42;11.75;;;;;;;21.21;90.16;100468.48;1686042;81;27071;-78
2021/07/18 03:35:06;;;;;;;15.90;12.63;;;;;;;21.23;90.26;100466.89;1676075;81;25979;-78
2021/07/18 03:37:34;;;;;;;17.07;12.65;;;;;;;21.27;90.34;100466.64;1731084;81;25889;-78
2021/07/18 03:40:06;;;;;;;16.97;13.38;;;;;;;21.31;90.36;100475.41;1709314;81;26096;-78
2021/07/18 03:42:33;;;;;;;17.42;13.22;;;;;;;21.37;90.40;100479.81;1720083;81;25436;-78
2021/07/18 03:45:00;;;;;;;15.10;13.13;;;;;;;21.44;90.53;100477.70;1712006;80;27297;-78
2021/07/18 03:47:27;;;;;;;15.18;12.68;;;;;;;21.53;90.35;100486.21;1746596;80;25953;-78
2021/07/18 03:49:54;;;;;;;16.35;12.37;;;;;;;21.57;90.44;100487.33;1680833;80;25796;-78
2021/07/18 03:52:21;;;;;;;14.23;12.50;;;;;;;21.62;90.16;100483.26;1707843;80;26162;-78
2021/07/18 03:54:48;;;;;;;18.75;13.25;;;;;;;21.67;90.23;100481.11;1672042;83;25849;-78
2021/07/18 03:57:15;;;;;;;16.65;12.25;;;;;;;21.66;90.10;100478.95;1749740;80;27361;-78
2021/07/18 03:59:42;;;;;;;14.98;12.28;;;;;;;21.65;90.26;100482.75;1741406;80;25857;-78
2021/07/18 04:02:09;;;;;;;14.70;12.23;;;;;;;21.65;90.24;100479.19;1675752;82;25966;-78
2021/07/18 04:04:36;;;;;;;13.65;11.97;;;;;;;21.62;90.29;100483.83;1686006;82;25998;-78
2021/07/18 04:07:03;;;;;;;16.40;12.45;;;;;;;21.59;90.54;100482.44;1739289;82;25871;-78
2021/07/18 04:09:30;;;;;;;14.47;11.57;;;;;;;21.60;90.79;100484.63;1692578;82;27616;-78
2021/07/18 04:11:57;;;;;;;14.85;12.13;;;;;;;21.62;90.99;100482.45;1689878;82;25916;-78
2021/07/18 04:14:24;;;;;;;15.03;12.55;;;;;;;21.63;90.84;100486.81;1688866;82;25878;-78
2021/07/18 04:16:51;;;;;;;15.78;12.80;;;;;;;21.64;90.96;100491.20;1738220;80;25950;-78
2021/07/18 04:19:18;;;;;;;14.20;12.70;;;;;;;21.64;91.27;100488.47;1684959;82;25405;-78
2021/07/18 04:21:45;;;;;;;20.15;13.38;;;;;;;21.62;91.12;100482.45;1683903;82;27535;-78
2021/07/18 04:24:12;;;;;;;19.15;12.58;;;;;;;21.64;91.24;100482.45;1681200;82;25827;-78
2021/07/18 04:26:39;;;;;;;15.95;12.73;;;;;;;21.63;91.44;100480.83;1731961;80;25885;-78
2021/07/18 04:29:06;;;;;;;18.02;12.43;;;;;;;21.63;91.60;100485.45;1682812;82;25898;-78
2021/07/18 04:31:33;;;;;;;21.93;12.75;;;;;;;21.62;91.79;100485.98;1687403;82;25896;-78
2021/07/18 04:34:00;;;;;;;13.50;12.07;;;;;;;21.62;91.64;100479.73;1675922;82;27369;-78
2021/07/18 04:36:27;;;;;;;19.73;13.35;;;;;;;21.62;91.76;100490.08;1733030;80;25869;-78
2021/07/18 04:38:54;;;;;;;17.52;12.73;;;;;;;21.63;91.98;100484.91;1720533;81;25811;-78
2021/07/18 04:41:22;;;;;;;17.50;13.30;;;;;;;21.65;91.98;100490.92;1686262;83;25813;-78
2021/07/18 04:43:49;;;;;;;19.07;12.60;;;;;;;21.67;92.02;100492.02;1674898;82;25975;-78
2021/07/18 04:46:16;;;;;;;21.85;12.63;;;;;;;21.67;91.91;100492.84;1732212;80;27624;-78
2021/07/18 04:48:43;;;;;;;18.32;12.95;;;;;;;21.68;92.02;100498.59;1644150;83;26453;-78
2021/07/18 04:51:10;;;;;;;16.87;12.85;;;;;;;21.69;92.10;100497.49;1696719;83;26845;-78
2021/07/18 04:53:37;;;;;;;16.82;12.55;;;;;;;21.71;91.91;100494.50;1674392;80;25841;-78
2021/07/18 04:56:04;;;;;;;17.75;12.63;;;;;;;21.70;92.19;100503.24;1759520;80;25289;-78
2021/07/18 04:58:31;;;;;;;15.55;12.40;;;;;;;21.71;92.13;100499.95;1698155;81;27439;-78
2021/07/18 05:00:58;;;;;;;15.98;12.07;;;;;;;21.71;92.15;100497.22;1702299;81;25941;-78
2021/07/18 05:03:25;;;;;;;15.70;11.48;;;;;;;21.74;92.68;100497.54;1688562;81;25912;-78
2021/07/18 05:05:52;;;;;;;16.60;11.65;;;;;;;21.78;92.49;100498.66;1690008;81;25833;-78
2021/07/18 05:08:20;;;;;;;18.80;12.45;;;;;;;21.82;92.38;100494.85;1685726;81;25865;-78
2021/07/18 05:10:47;;;;;;;15.32;11.05;;;;;;;21.83;92.42;100494.64;1718254;81;27595;-78
2021/07/18 05:13:14;;;;;;;16.45;10.95;;;;;;;21.85;92.32;100495.20;1739689;81;25747;-78
2021/07/18 05:15:41;;;;;;;16.07;11.00;;;;;;;21.88;92.55;100488.37;1671163;82;25741;-78
2021/07/18 05:18:14;;;;;;;14.80;10.95;;;;;;;21.89;92.26;100488.13;1703751;81;25841;-79
2021/07/18 05:20:42;;;;;;;16.23;11.10;;;;;;;21.94;92.44;100497.69;1723615;81;25871;-78
2021/07/18 05:23:10;;;;;;;13.10;10.78;;;;;;;21.99;92.32;100490.91;1710827;81;27517;-78
2021/07/18 05:25:38;;;;;;;17.95;11.70;;;;;;;22.02;92.25;100491.76;1706134;81;26032;-78
2021/07/18 05:28:05;;;;;;;12.37;9.95;;;;;;;22.05;91.90;100489.02;1727438;81;25872;-78
2021/07/18 05:30:32;;;;;;;12.33;10.38;;;;;;;22.10;91.91;100497.24;1740680;80;25919;-78
2021/07/18 05:33:00;;;;;;;16.00;10.65;;;;;;;22.18;91.86;100504.91;1750185;80;25915;-78
2021/07/18 05:35:27;;;;;;;11.10;9.68;;;;;;;22.26;91.50;100497.61;1669672;81;27517;-78
2021/07/18 05:37:54;;;;;;;15.23;10.43;;;;;;;22.34;91.45;100505.28;1698466;81;26208;-78
2021/07/18 05:40:21;;;;;;;11.45;9.20;;;;;;;22.40;91.06;100498.75;1706648;80;25943;-77
2021/07/18 05:42:48;;;;;;;16.17;9.65;;;;;;;22.46;90.88;100494.13;1702908;81;25852;-78
2021/07/18 05:45:15;;;;;;;12.53;9.03;;;;;;;22.51;90.74;100496.89;1680072;81;25676;-78
2021/07/18 05:47:42;;;;;;;12.10;10.28;;;;;;;22.51;90.24;100498.25;1729346;81;27542;-78
2021/07/18 05:50:11;;;;;;;14.80;7.97;;;;;;;22.55;90.42;100497.45;1736963;81;26022;-78
2021/07/18 05:52:39;;;;;;;10.82;8.68;;;;;;;22.57;89.58;100500.73;1725858;81;25873;-78
2021/07/18 05:55:09;;;;;;;9.83;8.38;;;;;;;22.53;89.01;100496.90;1685240;80;26597;-78
2021/07/18 05:57:37;;;;;;;14.78;9.23;;;;;;;22.51;89.14;100496.89;1713490;81;25901;-78
2021/07/18 06:00:11;;;;;;;13.30;8.78;;;;;;;22.53;88.52;100500.17;1741980;80;27576;-78
2021/07/18 06:02:41;;;;;;;10.23;8.28;;;;;;;22.53;88.46;100499.63;1754675;80;26478;-77
2021/07/18 06:05:09;;;;;;;9.98;8.33;;;;;;;22.55;88.06;100495.26;1678441;81;25807;-78
2021/07/18 06:07:40;;;;;;;10.88;8.30;;;;;;;22.59;88.58;100496.39;1712013;81;26470;-78
2021/07/18 06:10:09;;;;;;;11.00;8.10;;;;;;;22.62;88.50;100496.70;1728406;81;25770;-77
2021/07/18 06:12:36;;;;;;;13.48;9.03;;;;;;;22.64;88.22;100495.88;1711429;81;28647;-78
2021/07/18 06:15:05;;;;;;;12.05;8.70;;;;;;;22.66;88.15;100495.07;1681283;80;25850;-77
2021/07/18 06:17:35;;;;;;;13.28;9.33;;;;;;;22.69;88.24;100499.18;1711578;81;25375;-78
2021/07/18 06:20:06;;;;;;;10.20;8.58;;;;;;;22.72;87.76;100499.45;1737076;81;25916;-77
2021/07/18 06:22:32;;;;;;;14.18;8.43;;;;;;;22.73;87.52;100498.34;1734423;81;25853;-78
2021/07/18 06:24:59;;;;;;;13.80;8.85;;;;;;;22.78;87.68;100492.91;1678080;81;27669;-77
2021/07/18 06:27:26;;;;;;;9.48;8.43;;;;;;;22.82;87.43;100496.73;1724182;81;25792;-78
2021/07/18 06:29:53;;;;;;;9.40;7.87;;;;;;;22.84;87.56;100497.83;1691167;82;25897;-77
2021/07/18 06:32:21;;;;;;;11.48;8.43;;;;;;;22.87;87.30;100499.49;1725910;81;26532;-77
2021/07/18 06:34:48;;;;;;;11.68;7.85;;;;;;;22.89;87.18;100499.22;1670595;81;25924;-77
2021/07/18 06:37:16;;;;;;;10.95;7.47;;;;;;;22.89;86.92;100500.58;1702117;81;27483;-77
2021/07/18 06:39:43;;;;;;;9.55;7.78;;;;;;;22.89;87.25;100491.02;1701216;81;25924;-78
2021/07/18 06:42:10;;;;;;;10.38;7.72;;;;;;;22.85;86.96;100497.58;1747105;80;25757;-77
2021/07/18 06:44:37;;;;;;;11.88;9.00;;;;;;;22.84;87.04;100497.83;1678460;83;25773;-78
2021/07/18 06:47:04;;;;;;;11.97;8.20;;;;;;;22.87;87.01;100499.49;1710842;81;25933;-78
2021/07/18 06:49:31;;;;;;;10.45;7.87;;;;;;;22.87;86.71;100506.86;1705383;80;27596;-78
2021/07/18 06:51:58;;;;;;;13.15;8.28;;;;;;;22.85;86.66;100504.95;1728560;81;25865;-77
2021/07/18 06:54:25;;;;;;;10.32;7.58;;;;;;;22.87;86.56;100504.13;1673391;81;25796;-77
2021/07/18 06:56:52;;;;;;;14.00;8.40;;;;;;;22.88;86.38;100505.78;1711052;81;25900;-77
2021/07/18 06:59:19;;;;;;;10.55;7.87;;;;;;;22.89;86.37;100508.78;1712723;81;25883;-77
2021/07/18 07:01:47;;;;;;;14.70;8.43;;;;;;;22.90;86.27;100503.61;1765175;80;27607;-77
2021/07/18 07:04:14;;;;;;;10.30;7.80;;;;;;;22.90;85.88;100509.86;1687625;81;26588;-77
2021/07/18 07:06:41;;;;;;;11.53;8.28;;;;;;;22.90;85.79;100513.16;1719064;81;25969;-77
2021/07/18 07:09:08;;;;;;;13.30;7.90;;;;;;;22.90;85.47;100513.96;1717130;81;25770;-77
2021/07/18 07:11:35;;;;;;;11.68;8.50;;;;;;;22.88;85.60;100513.41;1740234;81;25880;-77
2021/07/18 07:14:02;;;;;;;16.15;8.95;;;;;;;22.89;85.58;100514.23;1693895;81;27998;-78
2021/07/18 07:16:29;;;;;;;11.68;7.90;;;;;;;22.90;85.57;100523.52;1679073;82;26576;-78
2021/07/18 07:18:56;;;;;;;11.93;8.03;;;;;;;22.93;85.94;100525.73;1717748;81;26448;-77
2021/07/18 07:21:23;;;;;;;10.25;7.85;;;;;;;22.97;85.92;100523.27;1733531;81;26006;-77
2021/07/18 07:23:50;;;;;;;9.95;7.80;;;;;;;22.99;86.09;100528.73;1677788;81;25849;-77
2021/07/18 07:26:17;;;;;;;12.00;9.10;;;;;;;23.01;86.22;100530.66;1682670;83;28112;-77
2021/07/18 07:28:44;;;;;;;9.18;8.15;;;;;;;23.00;86.04;100527.66;1703430;82;26083;-78
2021/07/18 07:31:11;;;;;;;12.78;7.58;;;;;;;23.05;86.34;100524.66;1728126;81;25757;-77
2021/07/18 07:33:38;;;;;;;12.58;8.15;;;;;;;23.07;85.56;100527.41;1705931;80;25951;-77
2021/07/18 07:36:06;;;;;;;11.30;8.08;;;;;;;23.02;85.05;100530.12;1701662;81;25765;-77
2021/07/18 07:38:33;;;;;;;10.35;7.80;;;;;;;23.02;85.11;100535.58;1755372;80;27598;-78
2021/07/18 07:41:01;;;;;;;9.05;7.50;;;;;;;23.01;85.26;100521.63;1722017;81;25920;-78
2021/07/18 07:43:28;;;;;;;10.80;7.80;;;;;;;23.03;85.20;100529.05;1703184;81;26111;-78
2021/07/18 07:45:55;;;;;;;12.00;7.87;;;;;;;23.04;84.99;100521.11;1716253;80;25824;-78
2021/07/18 07:48:22;;;;;;;10.50;7.62;;;;;;;23.07;85.08;100527.41;1735510;80;25366;-78
2021/07/18 07:50:49;;;;;;;12.33;8.68;;;;;;;23.12;85.19;100524.66;1726867;80;27518;-77
2021/07/18 07:53:16;;;;;;;13.40;7.72;;;;;;;23.19;85.28;100523.86;1707235;81;25677;-78
2021/07/18 07:55:43;;;;;;;11.75;7.90;;;;;;;23.22;84.80;100530.70;1684454;81;25945;-78
2021/07/18 07:58:11;;;;;;;7.92;6.90;;;;;;;23.25;84.68;100528.78;1715382;81;25980;-78
2021/07/18 08:00:38;;;;;;;8.50;7.60;;;;;;;23.29;84.13;100524.44;1736883;81;25947;-78
2021/07/18 08:03:05;;;;;;;10.45;7.50;;;;;;;23.28;84.20;100526.34;1707214;79;27400;-80
2021/07/18 08:05:32;;;;;;;8.70;6.50;;;;;;;23.32;84.29;100524.70;1700907;82;25866;-76
2021/07/18 08:08:01;;;;;;;8.00;7.17;;;;;;;23.36;84.20;100523.63;1740556;79;25924;-78
2021/07/18 08:10:28;;;;;;;8.35;7.53;;;;;;;23.43;84.06;100531.03;1757507;79;25848;-79
2021/07/18 08:12:56;;;;;;;10.25;7.60;;;;;;;23.53;84.25;100526.92;1679820;81;25604;-80
2021/07/18 08:15:24;;;;;;;9.23;7.05;;;;;;;23.59;83.59;100527.19;1703016;82;27561;-82
2021/07/18 08:17:52;;;;;;;9.60;7.15;;;;;;;23.65;83.29;100524.17;1740961;79;26572;-78
2021/07/18 08:20:23;;;;;;;8.30;6.97;;;;;;;23.74;83.18;100528.01;1763876;79;25896;-77
2021/07/18 08:22:53;;;;;;;10.95;7.20;;;;;;;23.84;83.35;100528.56;1715326;81;26538;-78
2021/07/18 08:25:23;;;;;;;10.80;6.75;;;;;;;23.92;82.60;100533.47;1679617;82;25383;-78
2021/07/18 08:27:54;;;;;;;7.33;6.42;;;;;;;23.96;82.72;100530.98;1738874;80;27647;-78
2021/07/18 08:30:22;;;;;;;9.68;6.92;;;;;;;23.95;81.57;100532.09;1761134;80;25713;-78
2021/07/18 08:32:51;;;;;;;7.87;7.03;;;;;;;23.95;81.14;100530.73;1697822;80;25932;-78
2021/07/18 08:35:19;;;;;;;8.50;7.03;;;;;;;23.94;81.34;100536.74;1703893;80;25885;-78
2021/07/18 08:37:47;;;;;;;9.50;6.90;;;;;;;24.00;81.88;100533.44;1730101;81;25698;-78
2021/07/18 08:40:15;;;;;;;13.90;7.10;;;;;;;24.05;80.90;100532.10;1715855;82;27585;-78
2021/07/18 08:42:42;;;;;;;9.88;6.85;;;;;;;24.09;81.02;100533.19;1713435;80;25824;-78
2021/07/18 08:45:11;;;;;;;9.23;7.17;;;;;;;24.08;80.65;100535.67;1735629;80;26470;-78
2021/07/18 08:47:40;;;;;;;10.65;7.03;;;;;;;24.06;80.40;100529.08;1755147;79;26486;-78
2021/07/18 08:50:09;;;;;;;9.45;7.30;;;;;;;24.06;79.61;100529.08;1707294;81;26572;-78
2021/07/18 08:52:37;;;;;;;9.05;6.53;;;;;;;24.21;80.42;100526.31;1741055;81;28841;-78
2021/07/18 08:55:07;;;;;;;11.45;6.22;;;;;;;24.34;79.41;100528.46;1681027;81;26620;-81
2021/07/18 08:57:35;;;;;;;10.57;6.73;;;;;;;24.60;79.40;100525.08;1734698;81;25843;-81
2021/07/18 09:00:05;;;;;;;8.78;6.08;;;;;;;24.60;79.40;100525.08;1684562;82;26723;-79
2021/07/18 09:02:33;;;;;;;7.95;6.30;;;;;;;24.69;78.90;100519.29;1685107;81;25886;-77
2021/07/18 09:05:00;;;;;;;7.80;6.58;;;;;;;24.79;78.98;100522.55;1685439;81;27579;-79
2021/07/18 09:07:27;;;;;;;8.43;6.25;;;;;;;24.84;78.19;100521.16;1731631;81;25923;-79
2021/07/18 09:10:07;;;;;;;9.83;5.37;;;;;;;24.82;77.87;100528.84;1681451;81;25721;-79
2021/07/18 09:12:34;;;;;;;10.32;6.67;;;;;;;24.88;78.25;100522.23;1684497;81;26694;-80
2021/07/18 09:15:01;;;;;;;10.30;5.65;;;;;;;24.95;78.54;100526.86;1667601;81;26435;-77
2021/07/18 09:17:35;;;;;;;6.42;5.67;;;;;;;25.04;78.00;100533.39;1742230;80;27543;-78
2021/07/18 09:20:19;;;;;;;9.63;6.55;;;;;;;25.12;77.38;100526.75;1705330;82;26402;-79
2021/07/18 09:22:46;;;;;;;7.92;5.97;;;;;;;25.17;77.47;100528.07;1706432;82;26084;-78
2021/07/18 09:25:13;;;;;;;8.65;5.87;;;;;;;25.31;76.64;100520.03;1680742;82;25912;-79
2021/07/18 09:27:40;;;;;;;6.95;6.25;;;;;;;25.38;76.85;100532.05;1732433;82;25788;-79
2021/07/18 09:30:16;;;;;;;7.65;6.37;;;;;;;25.39;76.47;100535.87;1684076;82;27576;-79
2021/07/18 09:32:48;;;;;;;9.63;5.47;;;;;;;25.39;75.58;100533.13;1705684;82;27210;-79
2021/07/18 09:35:18;;;;;;;6.40;5.17;;;;;;;25.41;75.03;100532.29;1682278;82;25980;-79
2021/07/18 09:37:48;;;;;;;8.10;5.80;;;;;;;25.42;74.16;100529.86;1733478;82;26281;-79
2021/07/18 09:40:18;;;;;;;;;;;;;;;25.45;74.32;100531.22;1685228;82;25636;-79
2021/07/18 09:42:56;;;;;;;7.40;4.90;;;;;;;25.50;74.00;100530.61;1681299;82;27469;-79
2021/07/18 09:45:30;;;;;;;6.30;5.03;;;;;;;25.61;74.51;100525.86;1727666;81;25849;-79
2021/07/18 09:48:07;;;;;;;8.78;4.67;;;;;;;25.75;73.46;100528.19;1731391;81;26677;-79
2021/07/18 09:50:41;;;;;;;5.70;4.30;;;;;;;25.72;71.71;100528.78;1731092;82;26220;-79
2021/07/18 09:53:22;;;;;;;11.40;5.15;;;;;;;25.77;70.81;100523.26;1645130;82;25789;-78
2021/07/18 09:55:57;;;;;;;;;;;;;;;25.90;71.65;100523.38;1733953;82;26885;-78
2021/07/18 09:58:27;;;;;;;6.10;4.42;;;;;;;25.98;70.76;100519.20;1695539;82;25805;-79
2021/07/18 10:00:55;;;;;;;8.13;4.67;;;;;;;26.06;72.04;100521.31;1694522;82;25810;-79
2021/07/18 10:03:24;;;;;;;8.28;4.95;;;;;;;26.13;71.06;100519.63;1684954;83;25864;-79
2021/07/18 10:06:19;;;;;;;5.30;4.45;;;;;;;26.15;70.31;100526.47;1725540;81;26470;-79
2021/07/18 10:08:48;;;;;;;7.30;4.97;;;;;;;26.05;70.31;100524.36;1698831;81;27622;-78
2021/07/18 10:11:19;;;;;;;6.87;5.23;;;;;;;26.09;70.83;100520.74;1700609;81;25890;-79
2021/07/18 10:13:49;;;;;;;5.70;4.62;;;;;;;26.24;70.87;100515.66;1678267;81;25472;-78
2021/07/18 10:16:19;;;;;;;5.97;4.85;;;;;;;26.44;70.09;100509.36;1723699;81;26456;-79
2021/07/18 10:18:48;;;;;;;9.45;5.20;;;;;;;26.49;68.68;100504.38;1698098;81;26034;-79
2021/07/18 10:21:20;;;;;;;5.35;4.80;;;;;;;26.57;69.56;100507.28;1659409;80;27629;-78
2021/07/18 10:23:51;;;;;;;6.47;4.83;;;;;;;26.68;68.57;100506.05;1725211;81;25891;-78
2021/07/18 10:26:25;;;;;;;5.97;4.92;;;;;;;26.81;67.13;100505.07;1749494;80;25263;-78
2021/07/18 10:28:53;;;;;;;5.60;4.50;;;;;;;26.87;66.67;100506.08;1695230;82;25872;-78
2021/07/18 10:31:28;;;;;;;5.42;4.72;;;;;;;26.96;62.80;100502.11;1672282;82;25862;-79
2021/07/18 10:33:56;;;;;;;5.33;4.78;;;;;;;27.02;65.49;100501.73;1674609;81;27365;-78
2021/07/18 10:36:26;;;;;;;4.47;4.08;;;;;;;27.11;61.52;100510.95;1735300;81;26016;-78
2021/07/18 10:38:53;;;;;;;8.55;5.00;;;;;;;27.11;61.94;100510.95;1728909;81;25765;-79
2021/07/18 10:41:41;;;;;;;5.92;5.08;;;;;;;27.12;63.05;100505.70;1708303;81;25889;-79
2021/07/18 10:44:15;;;;;;;6.10;4.80;;;;;;;27.19;63.50;100508.08;1701578;81;25796;-79
2021/07/18 10:46:49;;;;;;;7.67;4.50;;;;;;;27.28;62.82;100512.62;1685493;83;56882;-79
2021/07/18 10:49:16;;;;;;;5.12;4.65;;;;;;;27.30;61.69;100502.13;1727801;81;25750;-78
2021/07/18 10:51:51;;;;;;;6.65;4.65;;;;;;;27.34;62.87;100507.29;1698823;81;25864;-79
2021/07/18 10:54:21;;;;;;;10.82;5.17;;;;;;;27.36;61.76;100498.77;1660446;83;25887;-79
2021/07/18 10:56:55;;;;;;;5.20;4.75;;;;;;;27.32;61.71;100499.90;1677607;81;26581;-79
2021/07/18 10:59:40;;;;;;;7.80;5.58;;;;;;;27.40;61.81;100495.66;1706730;81;27537;-80
2021/07/18 11:02:13;;;;;;;5.60;5.10;;;;;;;27.38;62.44;100498.73;1685588;82;26051;-79
2021/07/18 11:04:52;;;;;;;6.28;4.87;;;;;;;27.43;62.90;100495.90;1714935;81;25928;-78
2021/07/18 11:07:33;;;;;;;4.92;4.53;;;;;;;27.43;60.48;100491.77;1733220;81;25676;-78
2021/07/18 11:10:19;;;;;;;5.45;5.05;;;;;;;27.33;60.26;100503.47;1735823;80;25996;-80
2021/07/18 11:12:51;;;;;;;5.85;5.30;;;;;;;27.18;61.41;100492.13;1715899;81;27502;-78
2021/07/18 11:15:39;;;;;;;6.00;5.10;;;;;;;27.10;61.34;100494.19;1691329;81;25947;-79
2021/07/18 11:18:13;;;;;;;4.55;4.15;;;;;;;27.00;59.38;100495.72;1733196;81;25864;-78
2021/07/18 11:20:54;;;;;;;4.90;4.40;;;;;;;26.88;58.47;100498.66;1744061;80;25924;-78
2021/07/18 11:23:42;;;;;;;5.53;5.03;;;;;;;26.90;59.41;100496.43;1688187;81;26284;-79
2021/07/18 11:26:12;;;;;;;7.05;5.40;;;;;;;26.97;61.19;100499.05;1713810;81;27366;-78
2021/07/18 11:31:18;;;;;;;7.80;5.97;;;;;;;27.01;61.88;100502.05;1739490;81;26083;-79